Biel Peña

Chefscout - Celta
24 Sep 2028
Sonntag
Verarbeitung

Persönlichkeit

Anpassungsfähigkeit (2) Ehrgeiz (13) Kontroverse (1) Loyalität (17) Druck (16) Professionalität (5) Fairness (6) Temperament (10)

Profil

Trainerstil Demokratisch
Lizenz Nationale A
Entschlossenheit 6
Menschenführung 11
Motivation 5
Disziplin 5
Arbeitszufriedenheit
100%
Ermüdung
0%
Rolle Chefscout
Gehalt 101.1K p/W
Vertrag 14.03.2030

Leistung

Verhalten Gut
Trainingseffektivität
50%
Spielerentwicklung
35%
Verletzungsprävention
60%
Taktische Umsetzung
70%

Letzte Ereignisse

Nahm an einer Scouting-Besprechung teil jetzt
Empfahl ein Transferziel jetzt
Empfahl ein Transferziel jetzt
Nahm an einer Scouting-Besprechung teil jetzt
Nahm an einer Scouting-Besprechung teil jetzt
Nahm an einer Scouting-Besprechung teil 7T her
Nahm an einer Scouting-Besprechung teil 7T her
Spiel beobachtet 7T her

Aktuell beobachtet

182
Spieler Verein Status Fähigkeit Vertrauen Beobachtet Zuletzt beobachtet Letzte Stimme
Marc Bernal Sevilla Aktiv 152 / 157 40% 10 30.08.2028 -
Celías Ingenthron Platense Aktiv 125 / 130 40% 2 30.08.2028 -
Ignacio Ovando Rosario Central Aktiv 109 / 113 40% 1 30.08.2028 -
Matias Siltanen Malmo FF Verloren 130 / 135 40% 2 21.08.2028 -
Alejandro Almaraz NK Celje Aktiv 120 / 119 40% 1 21.08.2028 -
Luis Otávio Orlando City Aktiv 115 / 114 40% 1 14.08.2028 -
Augusto Bando Ascoli Aktiv 117 / 124 40% 1 14.08.2028 -
Nazareno Roselli Defensa y Justicia Aktiv 109 / 114 40% 2 19.07.2028 -
Tyler Fletcher Rotherham United Aktiv 112 / 123 40% 4 19.07.2028 -
Tobías Ramírez River Plate Aktiv 125 / 139 40% 4 19.07.2028 -
Kiko Femenía Getafe Bericht bereit 130 / 131 76% 1 17.07.2028 -
Pau Cubarsí Real Sociedad Aktiv 158 / 163 40% 8 11.07.2028 -
Jorge Salinas Racing Santander Aktiv 139 / 139 40% 7 03.07.2028 -
Kiani Inge Groningen Aktiv 119 / 123 40% 2 03.07.2028 -
Josh Nichols Oldham Athletic Aktiv 121 / 124 40% 6 26.06.2028 -
Jan Bürger Northampton Town Aktiv 118 / 130 40% 5 24.06.2028 -
Trey Nyoni Rotherham United Aktiv 143 / 146 40% 6 21.06.2028 -
Olivier Leroux Mouscron Aktiv 106 / 106 40% 1 21.06.2028 -
Lucas Høgsberg RC Strasbourg Aktiv 141 / 141 40% 6 12.06.2028 -
Luiz Felipe Ceuta Bericht bereit 135 / 137 76% 1 12.06.2028 -
Lautaro Dufur Juventud Aktiv 110 / 105 40% 1 12.06.2028 -
Christos Mouzakitis Hull City Aktiv 133 / 140 40% 6 10.06.2028 -
Ayden Heaven Portsmouth Aktiv 143 / 154 40% 9 08.06.2028 -
Ignasi Vilarrasa Burgos Bericht bereit 135 / 126 76% 1 07.06.2028 -
Álex Lizancos Burgos Bericht bereit 124 / 137 76% 1 01.06.2028 -
Riquelme Thompson-Jones Accrington Stanley Aktiv 105 / 118 40% 6 31.05.2028 -
Andrija Bulatović Chamois Niortais Aktiv 129 / 129 40% 3 31.05.2028 -
Lamine Bèye Portimonense Aktiv 117 / 116 40% 3 31.05.2028 -
Daniel Banjaqui Benfica Aktiv 122 / 133 40% 2 30.05.2028 -
Giovanni Leoni Lincoln City Aktiv 137 / 146 40% 3 29.05.2028 -
Bernardo Lima Porto Aktiv 106 / 115 40% 7 29.05.2028 -
Honest Ahanor Atalanta Aktiv 140 / 145 40% 9 27.05.2028 -
Martim Cunha Porto Aktiv 108 / 119 40% 2 27.05.2028 -
Jorthy Mokio ADO Den Haag Aktiv 132 / 142 40% 3 22.05.2028 -
Héctor Fort Real Sociedad Aktiv 136 / 139 40% 7 11.05.2028 -
Pape Diong Westerlo Aktiv 122 / 130 40% 2 25.04.2028 -
Thiago Silvero Vélez Aktiv 122 / 140 40% 1 07.04.2028 -
Archie Gray Southampton Aktiv 148 / 158 40% 3 08.02.2028 -
Mustafa Hekimoğlu Antalyaspor Aktiv 131 / 126 40% 1 08.02.2028 -
Ryan McAidoo Oldham Athletic Aktiv 125 / 134 40% 1 07.02.2028 -
Sindre Walle Egeli Udinese Aktiv 141 / 139 40% 1 07.02.2028 -
Siyabonga Mabena Bidvest Wits Aktiv 128 / 124 40% 1 26.01.2028 -
Caleb Yirenkyi Coventry City Aktiv 146 / 142 40% 2 06.01.2028 -
Gabri Veiga Getafe Aktiv 147 / 149 69% 1 01.01.2028 -
Juan Manuel Villalba Tigre Aktiv 128 / 133 40% 1 31.12.2027 -
Esquerdinha Notts County Aktiv 128 / 132 40% 1 31.12.2027 -
Alejo Veliz Bahia Aktiv 139 / 143 40% 8 30.12.2027 -
Eduardo Lozano Botafogo Aktiv 150 / 149 40% 1 28.12.2027 -
Borja Mayoral Getafe Aktiv 157 / 144 62% 4 27.12.2027 -
Christian Kouamé Atlético Mineiro Aktiv 129 / 126 40% 12 27.12.2027 -
Bruno Barticciotto Talleres Aktiv 121 / 127 40% 2 27.12.2027 -
Martín Ojeda Orlando City Aktiv 145 / 129 40% 8 25.12.2027 -
Jesus Ferreira Seattle Sounders Aktiv 146 / 137 40% 9 24.12.2027 -
Yassir Zabiri Stade Rennais Aktiv 149 / 141 40% 4 24.12.2027 -
Pau Víctor Braga Aktiv 151 / 145 40% 10 22.12.2027 -
José Manuel López Palmeiras Aktiv 135 / 127 40% 3 22.12.2027 -
Morgan Guilavogui Real Salt Lake Aktiv 142 / 134 40% 5 21.12.2027 -
Facundo Colidio Vasco da Gama Aktiv 124 / 133 40% 2 20.12.2027 -
Daniel Karlsbakk Sarpsborg 08 Aktiv 125 / 129 40% 4 18.12.2027 -
Liel Abada Inter Miami CF Aktiv 152 / 129 40% 7 16.12.2027 -
Wessam Abou Ali Columbus Crew Aktiv 127 / 126 40% 5 13.12.2027 -
Zito Luvumbo Cagliari Aktiv 130 / 133 40% 2 13.12.2027 -
Facundo Balatti Penarol Aktiv 101 / 116 40% 2 13.12.2027 -
Victor Hernandez Santa Fe Aktiv 110 / 120 40% 3 12.12.2027 -
Izan Merino Málaga Aktiv 133 / 138 40% 1 12.12.2027 -
Dejan Joveljić Seattle Sounders Aktiv 119 / 126 40% 4 08.12.2027 -
Mateo Cassierra Atlético Mineiro Aktiv 146 / 128 40% 1 08.12.2027 -
Luca Langoni Columbus Crew Aktiv 133 / 137 40% 4 07.12.2027 -
Kauã Moraes Flamengo Aktiv 124 / 140 40% 1 07.12.2027 -
Claudio Spinelli Vasco da Gama Aktiv 116 / 118 40% 3 06.12.2027 -
Arthur Cabral Botafogo Aktiv 135 / 137 40% 6 04.12.2027 -
Germán Berterame Inter Miami CF Aktiv 133 / 130 40% 3 02.12.2027 -
Mutsuki Kato Sanfrecce Hiroshima Aktiv 126 / 138 40% 5 02.12.2027 -
Leonardo Campana New England Revolution Aktiv 119 / 120 40% 7 30.11.2027 -
Bénie Traoré New York City Aktiv 117 / 121 40% 4 27.11.2027 -
Talles Magno New York City Aktiv 127 / 132 40% 7 27.11.2027 -
Josh Acheampong Everton Aktiv 146 / 143 40% 1 24.11.2027 -
Petar Musa FC Dallas Aktiv 131 / 142 40% 7 20.11.2027 -
Max Fenger Helsingborg Aktiv 135 / 128 40% 3 19.11.2027 -
Agustín Obregón River Plate Aktiv 105 / 114 40% 1 18.11.2027 -
Tomás Chancalay New England Revolution Aktiv 119 / 134 40% 6 17.11.2027 -
Alexander Aravena Portland Timbers Aktiv 123 / 130 40% 4 17.11.2027 -
Louis Munteanu Charlotte Football Club Aktiv 123 / 131 40% 5 02.11.2027 -
Alexis Cuello San Lorenzo Aktiv 114 / 133 40% 2 01.11.2027 -
Juan Cruz de los Santos Nacional Aktiv 116 / 135 40% 6 31.10.2027 -
Agustín Anello Philadelphia Union Aktiv 126 / 128 40% 3 21.10.2027 -
Erison Kawasaki Frontale Aktiv 118 / 124 40% 2 09.10.2027 -
Ignacio Russo Tigre Aktiv 123 / 126 40% 1 02.10.2027 -
Kein Sato FC Tokyo Aktiv 120 / 132 40% 1 24.09.2027 -
Kévin Denkey FC Cincinnati Aktiv 119 / 123 40% 4 23.09.2027 -
Cheikh Sabaly Vancouver Whitecaps Aktiv 115 / 126 40% 1 06.09.2027 -
Jonathan Dubasin Osasuna Aktiv 153 / 149 40% 9 02.08.2027 -
Aune Heggebø West Bromwich Albion Aktiv 124 / 131 40% 1 22.07.2027 -
Chupete Málaga Aktiv 127 / 129 40% 9 20.07.2027 -
Patson Daka Leicester City Aktiv 134 / 131 40% 2 20.07.2027 -
Justo Giani Umraniyespor Aktiv 127 / 117 40% 9 16.07.2027 -
Maroan Sannadi Athletic Bilbao Aktiv 133 / 137 40% 5 16.07.2027 -
Isaac Romero Sevilla Aktiv 143 / 138 40% 7 14.07.2027 -
Joe Gelhardt Hull City Aktiv 131 / 130 40% 4 14.07.2027 -
Giacomo Raspadori Atalanta Aktiv 158 / 149 40% 6 05.07.2027 -
Taty Castellanos West Ham United Aktiv 149 / 150 40% 6 05.07.2027 -
Jon Morcillo Almería Aktiv 126 / 133 40% 4 05.07.2027 -
Erick Sánchez RC Lens Aktiv 139 / 139 68% 1 01.06.2027 -
Yousef Salech Cardiff City Aktiv 122 / 122 40% 6 31.05.2027 -
Roberto Fernández Braga Aktiv 148 / 144 40% 8 29.05.2027 Beobachten
Juninho Pumas UNAM Aktiv 123 / 120 40% 4 29.05.2027 -
Urko Izeta Cádiz Aktiv 139 / 127 40% 1 29.05.2027 -
Mikel Jauregizar Athletic Bilbao Aktiv 156 / 153 40% 2 27.05.2027 -
Andrés Martín Racing Santander Aktiv 140 / 140 40% 15 27.05.2027 -
Yeremy Pino Crystal Palace Aktiv 155 / 150 40% 6 27.05.2027 -
Nicolas Jackson Aston Villa Aktiv 151 / 149 40% 8 25.05.2027 -
Javi Puado Espanyol Aktiv 155 / 142 40% 1 25.05.2027 -
Mikel Oyarzábal Real Sociedad Aktiv 153 / 162 40% 4 24.05.2027 -
Georges Mikautadze Villarreal Aktiv 149 / 152 40% 7 20.05.2027 -
Ismaïla Sarr Crystal Palace Aktiv 145 / 149 40% 3 20.05.2027 -
Callum O'Hare Sheffield United Aktiv 131 / 130 40% 1 18.05.2027 -
Oli McBurnie Hull City Aktiv 136 / 139 40% 2 16.05.2027 -
Troy Parrott Betis Aktiv 133 / 144 40% 4 15.05.2027 -
Georginio Rutter Brighton Aktiv 151 / 147 40% 3 10.05.2027 -
Emanuel Emegha Chelsea Aktiv 136 / 138 40% 3 08.05.2027 -
João Pedro Chelsea Aktiv 150 / 154 40% 4 06.05.2027 -
Abel Ruiz Girona Aktiv 133 / 137 40% 2 01.05.2027 -
Hugo Cuypers Monterrey Aktiv 117 / 130 40% 2 01.05.2027 -
Olívio Tomé Benfica Aktiv 109 / 109 40% 1 29.04.2027 -
Alemão Rayo Vallecano Aktiv 130 / 131 40% 1 26.04.2027 -
Sam Greenwood Bristol City Aktiv 121 / 123 40% 1 23.04.2027 -
Lucas Varaldo Morelia Aktiv 103 / 118 40% 5 22.04.2027 -
Boubacar Kamara Aston Villa Aktiv 168 / 167 40% 2 21.04.2027 -
Mohamed-Ali Cho Hull City Aktiv 140 / 130 40% 4 17.04.2027 -
Thiago Brentford Aktiv 145 / 144 40% 5 12.04.2027 -
Sorriso Famalicao Aktiv 141 / 130 40% 2 11.04.2027 -
Ricardo Pepi Mallorca Aktiv 155 / 149 40% 2 07.04.2027 -
Oihan Sancet Athletic Bilbao Aktiv 169 / 153 40% 7 03.04.2027 Beobachten
Duk Atlas Aktiv 107 / 120 40% 2 03.04.2027 -
Rodrigo Muniz Fulham Aktiv 138 / 138 40% 3 29.03.2027 -
Carlos Álvarez Club America Aktiv 152 / 143 40% 7 28.03.2027 -
Ivo Mammini Beitar Jerusalem Aktiv 113 / 117 40% 6 28.03.2027 -
Alfon Sevilla Aktiv 141 / 141 40% 1 28.03.2027 -
Gaspar Gijón Aktiv 134 / 135 40% 1 27.03.2027 -
Peque Real Sociedad Aktiv 143 / 137 40% 4 24.03.2027 -
Wilson Isidor Sunderland Aktiv 133 / 136 40% 2 11.03.2027 -
Moisés Caicedo Chelsea Aktiv 176 / 172 40% 4 04.03.2027 -
Aimar Osasuna Aktiv 160 / 150 40% 2 02.03.2027 -
Manu Koné AS Roma Aktiv 164 / 165 40% 3 02.03.2027 -
José Alvarado Leon Aktiv 103 / 108 40% 1 16.02.2027 -
Diego López Valencia Aktiv 143 / 145 40% 1 11.02.2027 -
Iliman N'Diaye Everton Aktiv 166 / 153 40% 2 10.02.2027 Mehr Infos nötig
Pablo Torre Mallorca Aktiv 143 / 144 62% 3 21.12.2026 Befürworten
Erik Lira Cruz Azul Aktiv 142 / 131 40% 2 15.12.2026 -
Savinho Tottenham Aktiv 162 / 163 40% 3 14.12.2026 -
Kevin Fulham Aktiv 140 / 149 40% 1 09.12.2026 -
Ferran Torres Paris Saint-Germain Aktiv 168 / 165 40% 1 08.12.2026 -
Cristian Uribe Monaco Aktiv 159 / 155 40% 4 02.12.2026 -
Jesús Areso Athletic Bilbao Aktiv 141 / 146 40% 1 27.11.2026 -
Roberto de la Rosa Monterrey Aktiv 125 / 116 40% 1 27.11.2026 -
Christantus Uche Getafe Aktiv 137 / 145 40% 2 23.11.2026 -
Marcel Ruiz Crystal Palace Aktiv 147 / 139 40% 2 20.11.2026 -
Alejandro Piedrahita Deportivo Pereira Aktiv 131 / 124 40% 2 18.11.2026 -
Álex Baena Atlético Madrid Aktiv 151 / 165 40% 2 09.11.2026 -
Ramiro Ruiz Rodríguez Atlético Tucumán Aktiv 121 / 121 40% 1 08.11.2026 -
Carlos Forbs Club Brugge Aktiv 134 / 129 40% 1 04.11.2026 -
Jadon Sancho Manchester United Aktiv 141 / 152 40% 1 04.11.2026 -
Nicolás Cordero Aldosivi Aktiv 106 / 120 40% 1 01.11.2026 -
Mason Mount Manchester United Aktiv 155 / 157 40% 1 28.10.2026 -
Brayan Moreno Santa Fe Aktiv 126 / 111 40% 2 27.10.2026 -
Vitinha Paris Saint-Germain Aktiv 180 / 183 40% 2 23.10.2026 -
Tyrese Campbell Sheffield United Aktiv 124 / 122 40% 1 21.10.2026 -
Óscar Mingueza Crystal Palace Aktiv 152 / 146 40% 1 21.10.2026 -
Aníbal Moreno River Plate Aktiv 144 / 137 40% 1 19.10.2026 -
Nico Williams Athletic Bilbao Aktiv 154 / 172 40% 2 14.10.2026 -
Mats Wieffer Brighton Aktiv 146 / 146 40% 1 14.10.2026 -
Khvicha Kvaratskhelia Paris Saint-Germain Aktiv 164 / 171 40% 1 07.10.2026 -
Richard Ledezma Guadalajara Aktiv 131 / 139 40% 1 04.10.2026 -
Amadou Onana Aston Villa Aktiv 160 / 157 40% 1 29.09.2026 -
José Ángel Carmona Sevilla Aktiv 152 / 140 40% 1 28.09.2026 -
Morgan Rogers Chelsea Aktiv 149 / 155 40% 2 27.09.2026 -
Micky van de Ven Tottenham Aktiv 156 / 156 40% 1 18.09.2026 -
Misael Sosa Godoy Cruz Aktiv 122 / 113 40% 1 12.09.2026 -
Luciano Cosentino Wanderers Aktiv 128 / 127 40% 1 12.09.2026 -
Mauro Valiente Estudiantes Aktiv 115 / 109 40% 1 10.09.2026 -
Álex Muñoz Almería Aktiv 135 / 129 62% 1 17.08.2026 Befürworten
Jorge De Frutos Rayo Vallecano Aktiv 151 / 141 40% 1 01.08.2026 -